createdAt,value
2019-05-14T00:01:13.995Z,8.90
2019-05-14T00:03:43.860Z,8.90
2019-05-14T00:06:13.744Z,9.00
2019-05-14T00:08:43.611Z,8.90
2019-05-14T00:11:13.467Z,8.90
2019-05-14T00:13:43.314Z,8.90
2019-05-14T00:16:13.152Z,8.90
2019-05-14T00:18:43.064Z,8.60
2019-05-14T00:21:13.025Z,8.50
2019-05-14T00:23:42.907Z,8.50
2019-05-14T00:26:12.889Z,8.50
2019-05-14T00:28:42.828Z,8.60
2019-05-14T00:31:12.685Z,8.60
2019-05-14T00:33:42.576Z,8.60
2019-05-14T00:36:12.514Z,8.70
2019-05-14T00:38:42.384Z,8.70
2019-05-14T00:41:12.226Z,8.70
2019-05-14T00:43:42.089Z,8.70
2019-05-14T00:46:11.987Z,8.70
2019-05-14T00:48:42.334Z,8.80
2019-05-14T00:51:12.196Z,8.60
2019-05-14T00:53:42.243Z,8.20
2019-05-14T00:56:12.320Z,8.00
2019-05-14T00:58:42.207Z,7.80
2019-05-14T01:01:12.104Z,7.90
2019-05-14T01:03:41.998Z,7.70
2019-05-14T01:06:11.979Z,7.80
2019-05-14T01:08:41.871Z,7.90
2019-05-14T01:11:11.964Z,7.90
2019-05-14T01:13:42.463Z,7.90
2019-05-14T01:16:12.899Z,7.80
2019-05-14T01:18:44.137Z,7.70
2019-05-14T01:21:14.551Z,7.80
2019-05-14T01:23:44.887Z,7.90
2019-05-14T01:26:15.064Z,7.90
2019-05-14T01:28:45.536Z,8.00
2019-05-14T01:31:15.712Z,8.00
2019-05-14T01:33:45.821Z,8.00
2019-05-14T01:36:15.997Z,7.80
2019-05-14T01:38:47.280Z,7.90
2019-05-14T01:41:17.520Z,7.90
2019-05-14T01:43:47.791Z,7.80
2019-05-14T01:46:17.946Z,7.80
2019-05-14T01:48:48.337Z,7.80
2019-05-14T01:51:18.512Z,7.80
2019-05-14T01:53:48.633Z,7.80
2019-05-14T01:56:18.751Z,7.70
2019-05-14T01:58:49.121Z,7.70
2019-05-14T02:01:21.750Z,7.60
2019-05-14T02:03:52.388Z,7.70
2019-05-14T02:06:22.555Z,7.70
2019-05-14T02:08:53.787Z,7.80
2019-05-14T02:11:24.020Z,8.10
2019-05-14T02:13:54.232Z,8.30
2019-05-14T02:16:24.420Z,8.10
2019-05-14T02:18:54.674Z,7.70
2019-05-14T02:21:24.863Z,7.40
2019-05-14T02:23:55.233Z,7.40
2019-05-14T02:26:25.557Z,7.70
2019-05-14T02:28:56.839Z,8.00
2019-05-14T02:31:29.210Z,8.10
2019-05-14T02:33:59.216Z,8.30
2019-05-14T02:36:30.967Z,7.90
2019-05-14T02:39:01.705Z,7.50
2019-05-14T02:41:31.912Z,7.30
2019-05-14T02:44:02.128Z,7.40
2019-05-14T02:46:32.296Z,7.40
2019-05-14T02:49:03.734Z,7.20
2019-05-14T02:51:33.853Z,7.10
2019-05-14T02:54:04.041Z,7.00
2019-05-14T02:56:34.367Z,7.00
2019-05-14T02:59:09.630Z,6.90
2019-05-14T03:01:40.474Z,7.00
2019-05-14T03:04:22.269Z,6.90
2019-05-14T03:06:54.073Z,6.90
2019-05-14T03:09:24.215Z,6.80
2019-05-14T03:11:54.528Z,6.90
2019-05-14T03:14:24.773Z,6.80
2019-05-14T03:16:59.197Z,6.90
2019-05-14T03:19:29.756Z,6.80
2019-05-14T03:22:00.345Z,6.50
2019-05-14T03:24:30.773Z,6.40
2019-05-14T03:27:02.321Z,6.30
2019-05-14T03:29:32.750Z,6.50
2019-05-14T03:32:03.907Z,6.50
2019-05-14T03:34:34.427Z,6.50
2019-05-14T03:37:04.860Z,6.40
2019-05-14T03:39:35.176Z,6.50
2019-05-14T03:42:05.452Z,6.30
2019-05-14T03:44:35.723Z,6.30
2019-05-14T03:47:10.160Z,6.30
2019-05-14T03:49:39.977Z,6.20
2019-05-14T03:52:10.369Z,6.20
2019-05-14T03:54:41.116Z,6.20
2019-05-14T03:57:12.460Z,6.10
2019-05-14T03:59:42.653Z,6.00
2019-05-14T04:02:12.907Z,6.10
2019-05-14T04:04:43.265Z,5.90
2019-05-14T04:07:13.708Z,5.80
2019-05-14T04:09:49.080Z,5.80
2019-05-14T04:12:19.389Z,6.10
2019-05-14T04:14:51.843Z,6.40
2019-05-14T04:17:36.699Z,6.40
2019-05-14T04:19:59.938Z,6.30
2019-05-14T04:22:31.716Z,6.50
2019-05-14T04:25:03.668Z,6.50
2019-05-14T04:27:35.501Z,6.50
2019-05-14T04:30:09.450Z,6.90
2019-05-14T04:32:41.650Z,7.20
2019-05-14T04:35:12.016Z,7.40
2019-05-14T04:37:42.514Z,7.50
2019-05-14T04:40:12.860Z,7.50
2019-05-14T04:42:43.084Z,7.40
2019-05-14T04:45:13.611Z,7.30
2019-05-14T04:47:44.872Z,7.50
2019-05-14T04:50:15.504Z,7.60
2019-05-14T04:52:49.079Z,7.70
2019-05-14T04:55:20.415Z,7.70
2019-05-14T04:57:50.322Z,7.70
2019-05-14T05:00:20.969Z,7.70
2019-05-14T05:02:51.206Z,7.80
2019-05-14T05:05:23.425Z,7.90
2019-05-14T05:07:55.445Z,8.10
2019-05-14T05:10:25.661Z,8.20
2019-05-14T05:12:58.463Z,8.20
2019-05-14T05:15:29.084Z,8.40
2019-05-14T05:17:59.411Z,8.50
2019-05-14T05:20:29.651Z,8.40
2019-05-14T05:22:59.740Z,8.40
2019-05-14T05:25:30.276Z,8.50
2019-05-14T05:28:00.593Z,8.70
2019-05-14T05:30:31.004Z,8.90
2019-05-14T05:33:01.243Z,9.10
2019-05-14T05:35:31.433Z,9.10
2019-05-14T05:38:01.691Z,9.20
2019-05-14T05:40:32.044Z,9.30
2019-05-14T05:43:02.443Z,9.30
2019-05-14T05:45:32.666Z,9.40
2019-05-14T05:48:02.858Z,9.50
2019-05-14T05:50:33.212Z,9.70
2019-05-14T05:53:03.767Z,9.70
2019-05-14T05:55:34.265Z,9.90
2019-05-14T05:58:04.608Z,10.00
2019-05-14T06:00:40.257Z,10.20
2019-05-14T06:03:11.647Z,10.20
2019-05-14T06:05:41.912Z,10.40
2019-05-14T06:08:13.123Z,10.50
2019-05-14T06:10:43.560Z,10.40
2019-05-14T06:13:14.303Z,10.60
2019-05-14T06:15:48.709Z,10.80
2019-05-14T06:18:19.545Z,10.90
2019-05-14T06:20:49.431Z,10.90
2019-05-14T06:23:20.119Z,10.90
2019-05-14T06:25:50.349Z,11.10
2019-05-14T06:28:21.177Z,11.10
2019-05-14T06:30:51.506Z,11.10
2019-05-14T06:33:21.949Z,11.20
2019-05-14T06:35:52.353Z,11.30
2019-05-14T06:38:22.783Z,11.30
2019-05-14T06:40:53.211Z,11.40
2019-05-14T06:43:23.844Z,11.50
2019-05-14T06:45:54.068Z,11.50
2019-05-14T06:48:30.868Z,11.70
2019-05-14T06:50:58.261Z,11.50
2019-05-14T06:53:28.989Z,11.70
2019-05-14T06:55:59.588Z,11.50
2019-05-14T06:58:30.200Z,11.20
2019-05-14T07:01:00.514Z,11.10
2019-05-14T07:03:30.694Z,11.50
2019-05-14T07:06:00.883Z,11.80
2019-05-14T07:08:32.014Z,11.80
2019-05-14T07:11:02.634Z,11.70
2019-05-14T07:13:32.854Z,11.80
2019-05-14T07:16:03.291Z,11.90
2019-05-14T07:18:46.308Z,12.10
2019-05-14T07:21:08.050Z,12.20
2019-05-14T07:23:38.438Z,12.30
2019-05-14T07:26:08.715Z,12.20
2019-05-14T07:28:41.969Z,12.10
2019-05-14T07:31:10.245Z,12.10
2019-05-14T07:33:40.166Z,12.00
2019-05-14T07:36:10.031Z,12.10
2019-05-14T07:38:40.020Z,12.40
2019-05-14T07:41:10.044Z,12.50
2019-05-14T07:43:40.072Z,12.70
2019-05-14T07:46:09.963Z,12.70
2019-05-14T07:48:40.878Z,12.70
2019-05-14T07:51:10.748Z,12.70
2019-05-14T07:53:42.485Z,12.90
2019-05-14T07:56:12.395Z,12.90
2019-05-14T07:58:42.356Z,13.00
2019-05-14T08:01:12.271Z,13.30
2019-05-14T08:03:42.184Z,13.20
2019-05-14T08:06:12.026Z,13.10
2019-05-14T08:08:43.223Z,13.20
2019-05-14T08:11:13.095Z,13.50
2019-05-14T08:13:43.204Z,13.50
2019-05-14T08:16:13.453Z,13.60
2019-05-14T08:18:43.850Z,13.60
2019-05-14T08:21:14.043Z,13.60
2019-05-14T08:23:44.098Z,13.70
2019-05-14T08:26:14.417Z,13.50
2019-05-14T08:28:44.752Z,13.80
2019-05-14T08:31:18.583Z,13.80
2019-05-14T08:33:48.831Z,13.90
2019-05-14T08:36:19.091Z,13.90
2019-05-14T08:38:50.255Z,13.90
2019-05-14T08:41:20.968Z,14.10
2019-05-14T08:43:51.188Z,14.00
2019-05-14T08:46:21.524Z,13.90
2019-05-14T08:48:52.163Z,14.00
2019-05-14T08:51:22.389Z,14.10
2019-05-14T08:53:52.636Z,14.30
2019-05-14T08:56:23.026Z,14.50
2019-05-14T08:58:53.329Z,14.40
2019-05-14T09:01:23.687Z,14.60
2019-05-14T09:03:53.867Z,14.60
2019-05-14T09:06:24.301Z,14.50
2019-05-14T09:08:59.580Z,14.70
2019-05-14T09:11:35.855Z,14.80
2019-05-14T09:14:02.045Z,15.00
2019-05-14T09:16:43.239Z,14.50
2019-05-14T09:19:04.341Z,14.60
2019-05-14T09:21:34.750Z,14.60
2019-05-14T09:24:05.096Z,14.80
2019-05-14T09:26:35.412Z,15.00
2019-05-14T09:29:18.415Z,14.80
2019-05-14T09:31:39.138Z,14.80
2019-05-14T09:34:09.668Z,15.00
2019-05-14T09:36:39.917Z,15.10
2019-05-14T09:39:12.066Z,15.10
2019-05-14T09:41:42.144Z,15.10
2019-05-14T09:44:12.567Z,15.20
2019-05-14T09:46:42.822Z,15.40
2019-05-14T09:49:13.176Z,15.70
2019-05-14T09:51:43.328Z,15.80
2019-05-14T09:54:13.583Z,15.90
2019-05-14T09:56:43.974Z,15.80
2019-05-14T09:59:14.104Z,15.80
2019-05-14T10:01:44.663Z,15.80
2019-05-14T10:04:15.004Z,15.70
2019-05-14T10:06:45.214Z,16.00
2019-05-14T10:09:15.560Z,15.80
2019-05-14T10:11:45.943Z,15.60
2019-05-14T10:14:16.288Z,16.00
2019-05-14T10:16:48.963Z,16.30
2019-05-14T10:19:19.354Z,16.30
2019-05-14T10:21:49.626Z,16.10
2019-05-14T10:24:19.944Z,16.50
2019-05-14T10:26:50.381Z,16.30
2019-05-14T10:29:21.948Z,16.70
2019-05-14T10:31:52.214Z,16.50
2019-05-14T10:34:22.363Z,16.80
2019-05-14T10:36:53.568Z,17.00
2019-05-14T10:39:42.757Z,17.40
2019-05-14T10:42:13.193Z,17.70
2019-05-14T10:44:43.371Z,17.50
2019-05-14T10:47:13.726Z,17.40
2019-05-14T10:49:44.100Z,17.40
2019-05-14T10:52:14.223Z,17.50
2019-05-14T10:54:55.394Z,17.60
2019-05-14T10:57:18.299Z,17.30
2019-05-14T10:59:48.564Z,17.40
2019-05-14T11:02:18.969Z,18.00
2019-05-14T11:04:49.312Z,18.10
2019-05-14T11:07:19.632Z,17.70
2019-05-14T11:09:49.792Z,17.80
2019-05-14T11:12:19.987Z,17.60
2019-05-14T11:14:52.235Z,17.90
2019-05-14T11:17:22.116Z,18.00
2019-05-14T11:19:52.362Z,18.10
2019-05-14T11:22:22.689Z,18.30
2019-05-14T11:24:52.874Z,18.50
2019-05-14T11:27:23.106Z,19.00
2019-05-14T11:29:53.346Z,18.80
2019-05-14T11:32:23.582Z,19.00
2019-05-14T11:34:53.896Z,18.60
2019-05-14T11:37:24.189Z,18.60
2019-05-14T11:39:54.345Z,18.80
2019-05-14T11:42:24.801Z,18.50
2019-05-14T11:44:55.124Z,18.60
2019-05-14T11:47:25.621Z,19.10
2019-05-14T11:49:58.545Z,19.00
2019-05-14T11:52:28.727Z,18.60
2019-05-14T11:54:59.072Z,18.70
2019-05-14T11:57:30.380Z,19.00
2019-05-14T12:00:00.521Z,19.30
2019-05-14T12:02:30.742Z,19.30
2019-05-14T12:05:01.106Z,19.30
2019-05-14T12:07:31.414Z,19.50
2019-05-14T12:10:01.564Z,19.60
2019-05-14T12:12:31.788Z,19.90
2019-05-14T12:15:02.091Z,19.80
2019-05-14T12:17:32.382Z,20.10
2019-05-14T12:20:02.587Z,20.70
2019-05-14T12:22:33.359Z,21.20
2019-05-14T12:25:03.766Z,21.50
2019-05-14T12:27:34.193Z,20.80
2019-05-14T12:30:04.808Z,20.40
2019-05-14T12:32:35.069Z,20.90
2019-05-14T12:35:08.425Z,20.70
2019-05-14T12:37:38.877Z,20.60
2019-05-14T12:40:28.896Z,21.10
2019-05-14T12:42:59.561Z,21.40
2019-05-14T12:45:30.122Z,21.10
2019-05-14T12:48:00.309Z,21.20
2019-05-14T12:50:30.264Z,21.40
2019-05-14T12:53:00.276Z,21.30
2019-05-14T12:55:30.166Z,20.60
2019-05-14T12:58:00.080Z,20.90
2019-05-14T13:00:30.094Z,21.50
2019-05-14T13:02:59.968Z,21.30
2019-05-14T13:05:29.924Z,21.80
2019-05-14T13:07:59.840Z,21.80
2019-05-14T13:10:29.946Z,22.20
2019-05-14T13:12:59.912Z,23.10
2019-05-14T13:15:30.014Z,22.30
2019-05-14T13:18:00.135Z,22.00
2019-05-14T13:20:30.102Z,21.70
2019-05-14T13:22:59.977Z,22.60
2019-05-14T13:25:30.460Z,22.80
2019-05-14T13:28:01.533Z,23.00
2019-05-14T13:30:31.483Z,22.90
2019-05-14T13:33:01.382Z,22.50
2019-05-14T13:35:31.278Z,22.80
2019-05-14T13:38:02.240Z,23.00
2019-05-14T13:40:32.180Z,22.80
2019-05-14T13:43:02.693Z,22.70
2019-05-14T13:45:32.582Z,23.00
2019-05-14T13:48:02.575Z,23.40
2019-05-14T13:50:32.469Z,23.40
2019-05-14T13:53:09.238Z,23.50
2019-05-14T13:55:33.998Z,23.40
2019-05-14T13:58:04.918Z,23.10
2019-05-14T14:00:34.932Z,22.60
2019-05-14T14:03:04.806Z,23.00
2019-05-14T14:05:34.650Z,24.10
2019-05-14T14:08:05.718Z,24.00
2019-05-14T14:10:36.675Z,24.10
2019-05-14T14:13:10.962Z,23.80
2019-05-14T14:15:39.830Z,23.80
2019-05-14T14:18:09.731Z,23.50
2019-05-14T14:20:39.615Z,23.90
2019-05-14T14:23:22.089Z,23.10
2019-05-14T14:25:41.248Z,23.00
2019-05-14T14:28:11.277Z,22.20
2019-05-14T14:30:41.298Z,21.30
2019-05-14T14:33:11.209Z,21.00
2019-05-14T14:35:41.126Z,21.10
2019-05-14T14:38:11.125Z,21.60
2019-05-14T14:40:41.146Z,22.40
2019-05-14T14:43:11.153Z,22.40
2019-05-14T14:45:45.604Z,21.80
2019-05-14T14:48:13.037Z,22.20
2019-05-14T14:50:42.916Z,22.40
2019-05-14T14:53:12.783Z,22.10
2019-05-14T14:55:42.697Z,22.50
2019-05-14T14:58:13.206Z,22.60
2019-05-14T15:00:43.151Z,23.50
2019-05-14T15:03:13.143Z,24.20
2019-05-14T15:05:43.035Z,24.20
2019-05-14T15:08:12.963Z,24.50
2019-05-14T15:10:42.858Z,23.60
2019-05-14T15:13:12.735Z,23.60
2019-05-14T15:15:42.648Z,23.20
2019-05-14T15:18:14.158Z,23.10
2019-05-14T15:20:44.225Z,23.10
2019-05-14T15:23:14.117Z,23.20
2019-05-14T15:25:44.013Z,23.60
2019-05-14T15:28:14.772Z,23.20
2019-05-14T15:30:44.658Z,22.80
2019-05-14T15:33:14.672Z,23.50
2019-05-14T15:35:44.666Z,23.90
2019-05-14T15:38:14.655Z,23.70
2019-05-14T15:40:44.568Z,23.30
2019-05-14T15:43:14.455Z,23.00
2019-05-14T15:45:48.366Z,23.60
2019-05-14T15:48:19.965Z,23.80
2019-05-14T15:50:50.480Z,23.30
2019-05-14T15:53:20.874Z,23.40
2019-05-14T15:55:50.727Z,23.70
2019-05-14T15:58:21.607Z,23.60
2019-05-14T16:00:51.708Z,22.80
2019-05-14T16:03:21.580Z,22.30
2019-05-14T16:05:51.977Z,21.90
2019-05-14T16:08:22.638Z,21.90
2019-05-14T16:10:53.146Z,21.70
2019-05-14T16:13:23.112Z,21.00
2019-05-14T16:15:53.011Z,20.50
2019-05-14T16:18:23.084Z,19.90
2019-05-14T16:20:53.085Z,19.80
2019-05-14T16:23:23.116Z,19.40
2019-05-14T16:25:53.519Z,19.00
2019-05-14T16:28:23.883Z,18.90
2019-05-14T16:30:54.192Z,18.30
2019-05-14T16:33:24.423Z,18.20
2019-05-14T16:35:54.848Z,17.90
2019-05-14T16:38:28.337Z,17.90
2019-05-14T16:40:59.712Z,17.70
2019-05-14T16:43:32.472Z,17.60
2019-05-14T16:46:03.304Z,17.70
2019-05-14T16:48:33.511Z,17.60
2019-05-14T16:51:03.850Z,17.40
2019-05-14T16:53:34.072Z,17.10
2019-05-14T16:56:04.203Z,17.00
2019-05-14T16:58:34.496Z,16.90
2019-05-14T17:01:04.549Z,16.70
2019-05-14T17:03:34.853Z,16.60
2019-05-14T17:06:05.077Z,16.50
2019-05-14T17:08:39.127Z,16.40
2019-05-14T17:11:09.888Z,16.40
2019-05-14T17:13:40.376Z,16.30
2019-05-14T17:16:10.531Z,16.20
2019-05-14T17:18:40.941Z,16.10
2019-05-14T17:21:11.193Z,16.20
2019-05-14T17:23:41.732Z,16.10
2019-05-14T17:26:11.975Z,16.10
2019-05-14T17:28:42.280Z,15.90
2019-05-14T17:31:12.729Z,15.80
2019-05-14T17:33:42.849Z,15.70
2019-05-14T17:36:13.069Z,15.70
2019-05-14T17:38:44.662Z,15.80
2019-05-14T17:41:14.969Z,15.70
2019-05-14T17:43:45.488Z,15.60
2019-05-14T17:46:15.700Z,15.60
2019-05-14T17:48:48.564Z,15.60
2019-05-14T17:51:18.355Z,15.50
2019-05-14T17:53:48.516Z,15.40
2019-05-14T17:56:19.519Z,15.20
2019-05-14T17:58:50.798Z,15.20
2019-05-14T18:01:20.979Z,15.10
2019-05-14T18:03:51.025Z,15.10
2019-05-14T18:06:21.388Z,15.00
2019-05-14T18:08:52.659Z,15.00
2019-05-14T18:11:22.708Z,15.00
2019-05-14T18:13:52.925Z,15.10
2019-05-14T18:16:23.279Z,15.00
2019-05-14T18:18:53.516Z,14.90
2019-05-14T18:21:23.697Z,14.80
2019-05-14T18:23:54.076Z,14.70
2019-05-14T18:26:24.399Z,14.60
2019-05-14T18:28:54.728Z,14.60
2019-05-14T18:31:24.892Z,14.60
2019-05-14T18:33:55.669Z,14.50
2019-05-14T18:36:28.229Z,14.40
2019-05-14T18:38:58.702Z,14.40
2019-05-14T18:41:29.489Z,14.30
2019-05-14T18:43:59.838Z,14.40
2019-05-14T18:46:30.160Z,14.20
2019-05-14T18:49:00.448Z,14.00
2019-05-14T18:51:30.683Z,13.80
2019-05-14T18:54:00.953Z,13.80
2019-05-14T18:56:30.998Z,13.90
2019-05-14T18:59:01.351Z,13.80
2019-05-14T19:01:31.836Z,13.80
2019-05-14T19:04:02.039Z,13.70
2019-05-14T19:06:32.306Z,13.50
2019-05-14T19:09:03.276Z,13.70
2019-05-14T19:11:33.792Z,13.60
2019-05-14T19:14:03.863Z,13.60
2019-05-14T19:16:34.416Z,13.60
2019-05-14T19:19:04.764Z,13.60
2019-05-14T19:21:34.944Z,13.50
2019-05-14T19:24:05.093Z,13.50
2019-05-14T19:26:37.782Z,13.60
2019-05-14T19:29:08.661Z,13.60
2019-05-14T19:31:39.458Z,13.60
2019-05-14T19:34:09.916Z,13.60
2019-05-14T19:36:40.142Z,13.40
2019-05-14T19:39:10.540Z,13.30
2019-05-14T19:41:40.887Z,13.40
2019-05-14T19:44:11.399Z,13.20
2019-05-14T19:46:44.276Z,13.10
2019-05-14T19:49:14.585Z,13.00
2019-05-14T19:51:44.815Z,13.00
2019-05-14T19:54:15.039Z,13.10
2019-05-14T19:56:55.706Z,13.10
2019-05-14T19:59:18.331Z,13.10
2019-05-14T20:01:48.560Z,12.90
2019-05-14T20:04:18.729Z,12.90
2019-05-14T20:06:49.553Z,12.90
2019-05-14T20:09:19.851Z,12.90
2019-05-14T20:11:50.133Z,13.00
2019-05-14T20:14:20.252Z,12.90
2019-05-14T20:16:50.516Z,12.70
2019-05-14T20:19:20.862Z,12.80
2019-05-14T20:21:51.062Z,12.80
2019-05-14T20:24:21.182Z,12.60
2019-05-14T20:27:04.915Z,12.50
2019-05-14T20:29:23.265Z,12.40
2019-05-14T20:31:53.703Z,12.50
2019-05-14T20:34:24.016Z,12.50
2019-05-14T20:36:54.204Z,12.50
2019-05-14T20:39:24.419Z,12.50
2019-05-14T20:41:54.628Z,12.60
2019-05-14T20:44:24.946Z,12.40
2019-05-14T20:46:55.452Z,12.50
2019-05-14T20:49:25.553Z,12.40
2019-05-14T20:51:55.775Z,12.30
2019-05-14T20:54:25.996Z,12.30
2019-05-14T20:56:58.615Z,12.10
2019-05-14T20:59:28.956Z,12.30
2019-05-14T21:01:59.055Z,12.30
2019-05-14T21:04:29.173Z,12.30
2019-05-14T21:06:59.484Z,12.20
2019-05-14T21:09:29.582Z,12.10
2019-05-14T21:11:59.741Z,12.00
2019-05-14T21:14:29.965Z,12.10
2019-05-14T21:17:00.248Z,12.00
2019-05-14T21:19:30.751Z,11.90
2019-05-14T21:22:01.222Z,11.90
2019-05-14T21:24:32.220Z,11.90
2019-05-14T21:27:02.465Z,11.90
2019-05-14T21:29:32.789Z,11.90
2019-05-14T21:32:03.044Z,11.70
2019-05-14T21:34:33.185Z,11.70
2019-05-14T21:37:03.455Z,11.70
2019-05-14T21:39:33.783Z,11.80
2019-05-14T21:42:04.002Z,11.70
2019-05-14T21:44:34.160Z,11.60
2019-05-14T21:47:04.877Z,11.40
2019-05-14T21:49:35.179Z,11.40
2019-05-14T21:52:05.447Z,11.20
2019-05-14T21:54:39.519Z,11.20
2019-05-14T21:57:11.828Z,11.20
2019-05-14T21:59:41.792Z,11.20
2019-05-14T22:02:21.708Z,11.20
2019-05-14T22:04:44.396Z,11.10
2019-05-14T22:07:15.584Z,11.10
2019-05-14T22:09:45.696Z,11.10
2019-05-14T22:12:15.882Z,11.00
2019-05-14T22:14:48.131Z,11.00
2019-05-14T22:17:18.273Z,11.00
2019-05-14T22:19:49.074Z,10.90
2019-05-14T22:22:19.368Z,10.90
2019-05-14T22:24:49.481Z,10.90
2019-05-14T22:27:19.709Z,10.80
2019-05-14T22:29:49.893Z,10.70
2019-05-14T22:32:20.192Z,10.80
2019-05-14T22:34:50.402Z,10.80
2019-05-14T22:37:20.661Z,10.70
2019-05-14T22:39:50.872Z,10.70
2019-05-14T22:42:21.059Z,10.70
2019-05-14T22:44:51.233Z,10.70
2019-05-14T22:47:22.636Z,10.70
2019-05-14T22:49:52.900Z,10.70
2019-05-14T22:52:23.223Z,10.60
2019-05-14T22:54:53.380Z,10.70
2019-05-14T22:57:23.665Z,10.70
2019-05-14T22:59:53.990Z,10.70
2019-05-14T23:02:24.212Z,10.40
2019-05-14T23:04:54.924Z,10.50
2019-05-14T23:07:26.194Z,10.40
2019-05-14T23:09:56.348Z,10.40
2019-05-14T23:12:28.582Z,10.40
2019-05-14T23:14:58.397Z,10.40
2019-05-14T23:17:28.620Z,10.40
2019-05-14T23:19:58.891Z,10.30
2019-05-14T23:22:29.679Z,10.30
2019-05-14T23:25:00.060Z,10.20
2019-05-14T23:27:31.484Z,10.00
2019-05-14T23:30:01.676Z,9.90
2019-05-14T23:32:32.098Z,9.90
2019-05-14T23:35:02.283Z,10.10
2019-05-14T23:37:32.663Z,10.10
2019-05-14T23:40:02.968Z,10.10
2019-05-14T23:42:33.253Z,10.20
2019-05-14T23:45:03.413Z,10.20
2019-05-14T23:47:33.772Z,10.10
2019-05-14T23:50:04.412Z,10.20
2019-05-14T23:52:34.698Z,10.20
2019-05-14T23:55:05.056Z,10.20
2019-05-14T23:57:35.445Z,10.10
